createdAt,value
2018-06-13T04:08:20.321Z,13.60
2018-06-13T04:10:58.076Z,13.70
2018-06-13T04:13:30.382Z,13.90
2018-06-13T04:16:02.959Z,14.00
2018-06-13T04:18:42.222Z,14.10
2018-06-13T04:21:50.024Z,14.10
2018-06-13T04:24:35.262Z,14.30
2018-06-13T04:27:10.342Z,14.30
2018-06-13T04:29:47.046Z,14.30
2018-06-13T04:32:33.704Z,14.40
2018-06-13T04:35:16.942Z,14.50
2018-06-13T04:37:47.891Z,14.60
2018-06-13T04:40:28.606Z,14.80
2018-06-13T04:43:10.744Z,14.90
2018-06-13T04:45:43.092Z,15.00
2018-06-13T04:48:20.621Z,15.10
2018-06-13T04:50:52.412Z,15.20
2018-06-13T04:53:22.501Z,15.30
2018-06-13T04:55:53.323Z,15.30
2018-06-13T04:58:24.210Z,15.40
2018-06-13T05:00:54.649Z,15.60
2018-06-13T05:03:24.800Z,15.70
2018-06-13T05:05:55.588Z,15.70
2018-06-13T05:08:26.449Z,15.90
2018-06-13T05:10:56.953Z,15.90
2018-06-13T05:13:27.066Z,16.10
2018-06-13T05:15:59.196Z,16.20
2018-06-13T05:18:29.434Z,16.40
2018-06-13T05:20:59.554Z,16.50
2018-06-13T05:23:30.516Z,16.70
2018-06-13T05:26:00.889Z,16.90
2018-06-13T05:28:30.989Z,17.00
2018-06-13T05:31:01.787Z,17.20
2018-06-13T05:33:36.747Z,17.30
2018-06-13T05:36:07.226Z,17.40
2018-06-13T05:38:37.285Z,17.60
2018-06-13T05:41:07.837Z,17.80
2018-06-13T05:43:37.951Z,18.00
2018-06-13T05:46:07.848Z,18.20
2018-06-13T05:48:38.345Z,18.20
2018-06-13T05:51:18.826Z,18.40
2018-06-13T05:53:49.269Z,18.60
2018-06-13T05:56:20.142Z,18.50
2018-06-13T05:58:52.015Z,18.70
2018-06-13T06:01:23.145Z,18.60
2018-06-13T06:03:54.299Z,18.80
2018-06-13T06:06:27.178Z,19.10
2018-06-13T06:08:57.979Z,19.40
2018-06-13T06:11:30.208Z,19.90
2018-06-13T06:14:03.903Z,20.30
2018-06-13T06:16:36.489Z,20.40
2018-06-13T06:19:06.625Z,20.30
2018-06-13T06:21:49.348Z,20.10
2018-06-13T06:24:20.060Z,19.90
2018-06-13T06:26:51.177Z,19.90
2018-06-13T06:29:22.307Z,19.90
2018-06-13T06:31:52.831Z,20.10
2018-06-13T06:34:23.624Z,20.60
2018-06-13T06:36:54.149Z,20.90
2018-06-13T06:39:24.304Z,20.60
2018-06-13T06:41:54.774Z,20.60
2018-06-13T06:44:24.897Z,21.10
2018-06-13T06:46:55.679Z,21.30
2018-06-13T06:49:26.229Z,21.80
2018-06-13T06:51:57.050Z,21.80
2018-06-13T06:54:28.084Z,22.20
2018-06-13T06:56:58.911Z,22.60
2018-06-13T06:59:29.612Z,22.60
2018-06-13T07:01:59.628Z,22.40
2018-06-13T07:04:30.098Z,22.90
2018-06-13T07:07:00.246Z,23.40
2018-06-13T07:09:30.759Z,23.30
2018-06-13T07:12:00.804Z,23.80
2018-06-13T07:14:33.384Z,24.40
2018-06-13T07:17:04.209Z,24.60
2018-06-13T07:19:49.356Z,24.90
2018-06-13T07:22:20.016Z,24.70
2018-06-13T07:24:50.442Z,23.80
2018-06-13T07:27:21.537Z,23.20
2018-06-13T07:29:53.492Z,23.20
2018-06-13T07:32:24.308Z,23.90
2018-06-13T07:34:55.415Z,23.70
2018-06-13T07:37:29.728Z,23.80
2018-06-13T07:40:00.847Z,24.00
2018-06-13T07:42:32.149Z,23.60
2018-06-13T07:45:02.713Z,24.10
2018-06-13T07:47:33.256Z,24.40
2018-06-13T07:50:03.344Z,24.20
2018-06-13T07:52:34.481Z,24.20
2018-06-13T07:55:04.679Z,24.50
2018-06-13T07:57:35.505Z,24.50
2018-06-13T08:00:07.650Z,24.40
2018-06-13T08:02:38.164Z,24.60
2018-06-13T08:05:09.249Z,24.70
2018-06-13T08:07:41.075Z,25.20
2018-06-13T08:10:11.596Z,25.00
2018-06-13T08:12:41.724Z,24.90
2018-06-13T08:15:12.205Z,24.80
2018-06-13T08:17:43.333Z,24.80
2018-06-13T08:20:13.283Z,24.90
2018-06-13T08:22:44.123Z,25.20
2018-06-13T08:25:14.467Z,25.40
2018-06-13T08:27:52.352Z,25.20
2018-06-13T08:30:23.631Z,25.00
2018-06-13T08:32:54.007Z,24.60
2018-06-13T08:35:24.803Z,24.40
2018-06-13T08:37:55.904Z,24.40
2018-06-13T08:40:26.654Z,24.80
2018-06-13T08:42:57.851Z,25.20
2018-06-13T08:45:28.042Z,25.20
2018-06-13T08:48:05.165Z,26.30
2018-06-13T08:50:36.647Z,26.90
2018-06-13T08:53:07.596Z,27.60
2018-06-13T08:55:38.416Z,27.20
2018-06-13T08:58:10.408Z,26.70
2018-06-13T09:00:43.416Z,26.30
2018-06-13T09:03:13.925Z,26.50
2018-06-13T09:05:59.097Z,26.10
2018-06-13T09:08:29.685Z,26.40
2018-06-13T09:11:02.709Z,26.40
2018-06-13T09:13:33.330Z,26.60
2018-06-13T09:16:04.163Z,28.20
2018-06-13T09:18:38.298Z,29.50
2018-06-13T09:21:09.079Z,29.40
2018-06-13T09:23:42.611Z,29.70
2018-06-13T09:26:13.764Z,29.10
2018-06-13T09:28:48.347Z,28.20
2018-06-13T09:31:20.524Z,28.30
2018-06-13T09:33:55.039Z,28.50
2018-06-13T09:36:25.863Z,28.00
2018-06-13T09:44:18.459Z,27.00
2018-06-13T09:46:51.411Z,27.50
2018-06-13T09:49:22.883Z,27.70
2018-06-13T09:51:53.969Z,27.70
2018-06-13T09:54:31.766Z,27.30
2018-06-13T09:57:03.088Z,27.60
2018-06-13T09:59:45.607Z,28.40
2018-06-13T10:02:37.095Z,29.00
2018-06-13T10:07:10.241Z,29.20
2018-06-13T10:09:43.006Z,29.70
2018-06-13T10:12:24.109Z,29.10
2018-06-13T10:14:59.326Z,28.40
2018-06-13T10:17:43.983Z,27.90
2018-06-13T10:20:20.565Z,27.30
2018-06-13T10:22:51.722Z,26.90
2018-06-13T10:25:24.276Z,26.90
2018-06-13T10:27:56.273Z,27.00
2018-06-13T10:30:28.401Z,28.00
2018-06-13T10:32:58.756Z,29.40
2018-06-13T10:35:31.888Z,30.40
2018-06-13T10:38:03.067Z,31.60
2018-06-13T10:40:34.075Z,31.10
2018-06-13T10:43:08.240Z,30.30
2018-06-13T10:45:43.241Z,29.10
2018-06-13T10:48:14.709Z,28.50
2018-06-13T10:50:46.747Z,28.00
2018-06-13T10:53:25.797Z,28.30
2018-06-13T10:55:59.237Z,29.30
2018-06-13T10:58:30.182Z,30.60
2018-06-13T11:01:02.326Z,31.30
2018-06-13T11:03:37.202Z,30.20
2018-06-13T11:06:08.865Z,28.90
2018-06-13T11:08:43.147Z,28.00
2018-06-13T11:11:17.179Z,26.90
2018-06-13T11:13:52.416Z,26.20
2018-06-13T11:16:31.189Z,25.90
2018-06-13T11:22:05.007Z,25.20
2018-06-13T11:24:41.066Z,25.50
2018-06-13T11:27:14.241Z,25.60
2018-06-13T11:29:49.987Z,25.60
2018-06-13T11:32:20.893Z,26.10
2018-06-13T11:35:02.398Z,27.00
2018-06-13T11:37:36.270Z,27.90
2018-06-13T11:40:07.664Z,28.40
2018-06-13T11:42:42.040Z,29.10
2018-06-13T11:45:13.041Z,29.00
2018-06-13T11:47:55.304Z,28.80
2018-06-13T11:50:35.777Z,28.60
2018-06-13T11:55:49.304Z,28.80
2018-06-13T11:58:32.021Z,28.60
2018-06-13T12:01:18.187Z,28.80
2018-06-13T12:03:49.186Z,28.90
2018-06-13T12:06:22.647Z,28.70
2018-06-13T12:08:53.983Z,28.20
2018-06-13T12:11:33.536Z,27.50
2018-06-13T12:14:05.735Z,27.30
2018-06-13T12:16:37.996Z,27.10
2018-06-13T12:25:54.050Z,27.50
2018-06-13T12:28:29.110Z,27.30
2018-06-13T12:34:00.060Z,27.20
2018-06-13T12:36:50.645Z,27.10
2018-06-13T12:39:21.775Z,27.20
2018-06-13T12:51:53.276Z,26.90
2018-06-13T12:54:56.813Z,26.00
2018-06-13T14:00:40.341Z,21.20
2018-06-13T14:03:20.739Z,20.70
2018-06-13T15:49:07.046Z,16.00
2018-06-13T15:52:00.133Z,16.00
2018-06-13T15:57:09.576Z,16.00
2018-06-13T15:59:48.317Z,16.00
2018-06-13T16:02:23.743Z,16.00
2018-06-13T16:04:57.203Z,16.00
2018-06-13T16:07:50.275Z,16.00
2018-06-13T16:13:19.281Z,16.00
2018-06-13T16:16:02.636Z,15.90
2018-06-13T16:18:33.308Z,15.90
2018-06-13T16:21:03.830Z,15.90
2018-06-13T16:23:36.482Z,15.90
2018-06-13T16:26:11.288Z,15.90
2018-06-13T16:28:42.257Z,15.90
2018-06-13T16:31:27.704Z,15.90
2018-06-13T16:34:00.793Z,16.00
2018-06-13T16:39:17.350Z,15.90
2018-06-13T16:41:53.123Z,15.90
2018-06-13T16:44:23.941Z,16.00
2018-06-13T16:47:02.837Z,16.00
2018-06-13T16:52:37.105Z,16.00
2018-06-13T16:55:35.720Z,15.90
2018-06-13T16:58:13.655Z,16.00
2018-06-13T17:03:33.926Z,16.00
2018-06-13T17:06:11.788Z,16.00
2018-06-13T17:08:42.523Z,16.00
2018-06-13T17:11:19.131Z,16.00
2018-06-13T17:14:00.888Z,16.00
2018-06-13T17:16:39.079Z,16.10
2018-06-13T17:19:11.812Z,16.10
2018-06-13T17:21:57.815Z,16.00
2018-06-13T17:24:31.672Z,16.00
2018-06-13T17:27:03.681Z,16.00
2018-06-13T17:29:40.334Z,16.00
2018-06-13T17:32:12.159Z,16.00
2018-06-13T17:34:44.508Z,16.00
2018-06-13T17:37:20.328Z,16.10
2018-06-13T17:39:50.172Z,16.00
2018-06-13T17:42:19.767Z,16.00
2018-06-13T17:44:50.279Z,16.00
2018-06-13T17:47:22.437Z,16.00
2018-06-13T17:50:02.281Z,16.00
2018-06-13T17:52:32.869Z,16.00
2018-06-13T17:55:04.964Z,16.00
2018-06-13T17:57:36.244Z,16.00
2018-06-13T18:00:06.516Z,16.00
2018-06-13T18:02:38.116Z,16.00
2018-06-13T18:05:08.198Z,16.00
2018-06-13T18:07:38.844Z,16.10
2018-06-13T18:10:09.787Z,16.10
2018-06-13T18:12:39.621Z,16.00
2018-06-13T18:15:09.424Z,16.00
2018-06-13T18:17:42.025Z,16.00
2018-06-13T18:20:12.132Z,16.00
2018-06-13T18:22:42.848Z,15.90
2018-06-13T18:25:15.750Z,15.90
2018-06-13T18:27:48.605Z,15.90
2018-06-13T18:30:18.375Z,15.90
2018-06-13T18:32:48.197Z,15.80
2018-06-13T18:35:17.953Z,15.80
2018-06-13T18:37:48.265Z,15.80
2018-06-13T18:40:18.552Z,15.80
2018-06-13T18:42:48.899Z,15.70
2018-06-13T18:45:20.203Z,15.70
2018-06-13T18:47:52.181Z,15.60
2018-06-13T18:50:21.843Z,15.70
2018-06-13T18:52:53.127Z,15.60
2018-06-13T18:55:24.373Z,15.60
2018-06-13T18:57:55.045Z,15.60
2018-06-13T19:00:25.068Z,15.60
2018-06-13T19:02:54.867Z,15.50
2018-06-13T19:05:24.620Z,15.60
2018-06-13T19:07:54.397Z,15.50
2018-06-13T19:10:24.265Z,15.50
2018-06-13T19:12:55.092Z,15.50
2018-06-13T19:15:24.863Z,15.50
2018-06-13T19:17:54.620Z,15.50
2018-06-13T19:20:24.439Z,15.50
2018-06-13T19:22:54.314Z,15.50
2018-06-13T19:25:24.048Z,15.50
2018-06-13T19:27:54.408Z,15.50
2018-06-13T19:30:25.570Z,15.40
2018-06-13T19:32:55.522Z,15.50
2018-06-13T19:35:25.959Z,15.60
2018-06-13T19:37:57.056Z,15.60
2018-06-13T19:40:27.655Z,15.60
2018-06-13T19:42:57.655Z,15.60
2018-06-13T19:45:27.439Z,15.60
2018-06-13T19:48:02.297Z,15.60
2018-06-13T19:50:32.816Z,15.60
2018-06-13T19:53:08.916Z,15.60
2018-06-13T19:55:43.846Z,15.60
2018-06-13T19:58:13.440Z,15.60
2018-06-13T20:00:42.460Z,15.60
2018-06-13T20:03:16.522Z,15.50
2018-06-13T20:05:46.043Z,15.60
2018-06-13T20:08:15.303Z,15.50
2018-06-13T20:10:45.663Z,15.50
2018-06-13T20:13:20.464Z,15.60
2018-06-13T20:15:55.172Z,15.50
2018-06-13T20:18:29.874Z,15.60
2018-06-13T20:20:59.935Z,15.50
2018-06-13T20:23:29.818Z,15.50
2018-06-13T20:26:04.630Z,15.40
2018-06-13T20:28:39.449Z,15.30
2018-06-13T20:31:17.795Z,15.40
2018-06-13T20:33:48.157Z,15.30
2018-06-13T20:36:18.575Z,15.20
2018-06-13T20:38:49.801Z,15.30
2018-06-13T20:41:19.597Z,15.30
2018-06-13T20:43:50.884Z,15.30
2018-06-13T20:46:21.849Z,15.30
2018-06-13T20:48:52.040Z,15.30
2018-06-13T20:51:22.734Z,15.30
2018-06-13T20:53:52.674Z,15.30
2018-06-13T20:56:23.156Z,15.30
2018-06-13T20:58:53.220Z,15.30
2018-06-13T21:01:23.054Z,15.30
2018-06-13T21:03:52.864Z,15.20
2018-06-13T21:06:22.628Z,15.30
2018-06-13T21:08:53.157Z,15.30
2018-06-13T21:11:23.243Z,15.30
2018-06-13T21:13:53.040Z,15.30
2018-06-13T21:16:23.721Z,15.30
2018-06-13T21:18:53.651Z,15.30
2018-06-13T21:21:24.608Z,15.30
2018-06-13T21:23:56.333Z,15.30
2018-06-13T21:26:28.705Z,15.40
2018-06-13T21:28:59.657Z,15.30
2018-06-13T21:31:35.689Z,15.40
2018-06-13T21:34:18.451Z,15.30
2018-06-13T21:36:49.272Z,15.40
2018-06-13T21:39:23.312Z,15.30
2018-06-13T21:41:53.959Z,15.30
2018-06-13T21:44:27.395Z,15.30
2018-06-13T21:47:04.083Z,15.30
2018-06-13T21:49:34.493Z,15.20
2018-06-13T21:52:05.894Z,15.20
2018-06-13T21:54:36.860Z,15.20
2018-06-13T21:57:07.429Z,15.30
2018-06-13T21:59:37.742Z,15.30
